createdAt,value
2018-08-21T00:00:53.368Z,0
2018-08-21T00:02:02.659Z,0
2018-08-21T00:03:11.982Z,0
2018-08-21T00:04:21.857Z,0
2018-08-21T00:05:31.271Z,0
2018-08-21T00:06:40.596Z,0
2018-08-21T00:07:49.891Z,0
2018-08-21T00:08:59.483Z,0
2018-08-21T00:10:09.039Z,0
2018-08-21T00:11:18.082Z,0
2018-08-21T00:12:27.463Z,0
2018-08-21T00:13:36.796Z,0
2018-08-21T00:14:46.172Z,0
2018-08-21T00:15:55.511Z,0
2018-08-21T00:17:04.450Z,0
2018-08-21T00:18:13.545Z,0
2018-08-21T00:19:22.654Z,0
2018-08-21T00:20:32.279Z,0
2018-08-21T00:21:41.815Z,0
2018-08-21T00:22:51.234Z,0
2018-08-21T00:24:00.343Z,0
2018-08-21T00:25:09.610Z,0
2018-08-21T00:26:18.995Z,0
2018-08-21T00:27:28.647Z,0
2018-08-21T00:28:38.349Z,0
2018-08-21T00:29:47.983Z,0
2018-08-21T00:30:57.516Z,0
2018-08-21T00:32:06.754Z,0
2018-08-21T00:33:16.575Z,0
2018-08-21T00:34:25.588Z,0
2018-08-21T00:35:34.878Z,0
2018-08-21T00:36:44.631Z,0
2018-08-21T00:37:53.651Z,0
2018-08-21T00:39:02.872Z,0
2018-08-21T00:40:12.183Z,0
2018-08-21T00:41:21.555Z,0
2018-08-21T00:42:31.398Z,0
2018-08-21T00:43:40.979Z,0
2018-08-21T00:44:50.543Z,0
2018-08-21T00:45:59.874Z,0
2018-08-21T00:47:09.267Z,0
2018-08-21T00:48:18.561Z,0
2018-08-21T00:49:27.651Z,0
2018-08-21T00:50:36.983Z,0
2018-08-21T00:51:46.329Z,0
2018-08-21T00:52:55.382Z,0
2018-08-21T00:54:05.157Z,0
2018-08-21T00:55:15.078Z,0
2018-08-21T00:56:24.384Z,0
2018-08-21T00:57:33.951Z,0
2018-08-21T00:58:43.034Z,0
2018-08-21T00:59:52.085Z,0
2018-08-21T01:01:01.206Z,0
2018-08-21T01:02:11.322Z,0
2018-08-21T01:03:20.371Z,0
2018-08-21T01:04:29.978Z,0
2018-08-21T01:05:39.910Z,0
2018-08-21T01:06:49.162Z,0
2018-08-21T01:07:58.558Z,0
2018-08-21T01:09:08.426Z,0
2018-08-21T01:10:18.060Z,0
2018-08-21T01:11:27.693Z,0
2018-08-21T01:12:36.809Z,0
2018-08-21T01:13:46.419Z,0
2018-08-21T01:14:56.047Z,0
2018-08-21T01:16:05.430Z,0
2018-08-21T01:17:15.424Z,0
2018-08-21T01:18:25.074Z,0
2018-08-21T01:19:34.508Z,0
2018-08-21T01:20:44.090Z,0
2018-08-21T01:21:53.821Z,0
2018-08-21T01:23:02.854Z,0
2018-08-21T01:24:12.026Z,0
2018-08-21T01:25:21.357Z,0
2018-08-21T01:26:30.154Z,0
2018-08-21T01:27:39.800Z,0
2018-08-21T01:28:49.211Z,0
2018-08-21T01:29:59.131Z,0
2018-08-21T01:31:08.234Z,0
2018-08-21T01:32:17.614Z,0
2018-08-21T01:33:26.786Z,0
2018-08-21T01:34:35.964Z,0
2018-08-21T01:35:45.010Z,0
2018-08-21T01:36:54.682Z,0
2018-08-21T01:38:04.008Z,0
2018-08-21T01:39:13.646Z,0
2018-08-21T01:40:23.010Z,0
2018-08-21T01:41:32.480Z,0
2018-08-21T01:42:42.120Z,0
2018-08-21T01:43:51.414Z,0
2018-08-21T01:45:00.857Z,0
2018-08-21T01:46:10.500Z,0
2018-08-21T01:47:20.421Z,0
2018-08-21T01:48:30.271Z,0
2018-08-21T01:49:39.694Z,0
2018-08-21T01:50:49.334Z,0
2018-08-21T01:51:59.199Z,0
2018-08-21T01:53:08.526Z,0
2018-08-21T01:54:18.429Z,0
2018-08-21T01:55:28.163Z,0
2018-08-21T01:56:37.491Z,0
2018-08-21T01:57:47.431Z,0
2018-08-21T01:58:57.606Z,0
2018-08-21T02:00:06.883Z,0
2018-08-21T02:01:16.484Z,0
2018-08-21T02:02:25.824Z,0
2018-08-21T02:03:35.691Z,0
2018-08-21T02:04:45.632Z,0
2018-08-21T02:05:55.260Z,0
2018-08-21T02:07:04.928Z,0
2018-08-21T02:08:13.739Z,0
2018-08-21T02:09:23.343Z,0
2018-08-21T02:10:32.763Z,0
2018-08-21T02:11:42.095Z,0
2018-08-21T02:12:51.725Z,0
2018-08-21T02:14:01.277Z,0
2018-08-21T02:15:11.386Z,0
2018-08-21T02:16:20.724Z,0
2018-08-21T02:17:29.777Z,0
2018-08-21T02:18:39.200Z,0
2018-08-21T02:19:48.243Z,0
2018-08-21T02:20:57.542Z,0
2018-08-21T02:22:06.728Z,0
2018-08-21T02:23:16.574Z,0
2018-08-21T02:24:25.629Z,0
2018-08-21T02:25:35.219Z,0
2018-08-21T02:26:44.008Z,0
2018-08-21T02:27:53.598Z,0
2018-08-21T02:29:02.853Z,0
2018-08-21T02:30:12.471Z,0
2018-08-21T02:31:22.299Z,0
2018-08-21T02:32:31.632Z,0
2018-08-21T02:33:41.174Z,0
2018-08-21T02:34:50.535Z,0
2018-08-21T02:35:59.858Z,0
2018-08-21T02:37:09.650Z,0
2018-08-21T02:38:18.682Z,0
2018-08-21T02:39:27.975Z,0
2018-08-21T02:40:37.790Z,0
2018-08-21T02:41:47.629Z,0
2018-08-21T02:42:57.476Z,0
2018-08-21T02:44:06.447Z,0
2018-08-21T02:45:15.237Z,0
2018-08-21T02:46:25.097Z,0
2018-08-21T02:47:34.936Z,0
2018-08-21T02:48:44.199Z,0
2018-08-21T02:49:53.797Z,0
2018-08-21T02:51:03.312Z,0
2018-08-21T02:52:12.849Z,0
2018-08-21T02:53:23.050Z,0
2018-08-21T02:54:32.091Z,0
2018-08-21T02:55:41.911Z,0
2018-08-21T02:56:51.384Z,0
2018-08-21T02:58:00.764Z,0
2018-08-21T02:59:09.939Z,0
2018-08-21T03:00:18.987Z,0
2018-08-21T03:01:28.449Z,0
2018-08-21T03:02:37.741Z,0
2018-08-21T03:03:46.839Z,0
2018-08-21T03:04:55.658Z,0
2018-08-21T03:06:04.943Z,0
2018-08-21T03:07:14.724Z,0
2018-08-21T03:08:23.770Z,0
2018-08-21T03:09:32.778Z,0
2018-08-21T03:10:41.908Z,0
2018-08-21T03:11:50.946Z,0
2018-08-21T03:12:59.801Z,0
2018-08-21T03:14:09.211Z,0
2018-08-21T03:15:18.485Z,0
2018-08-21T03:16:27.819Z,0
2018-08-21T03:17:37.617Z,0
2018-08-21T03:18:47.180Z,0
2018-08-21T03:19:56.429Z,0
2018-08-21T03:21:05.521Z,0
2018-08-21T03:22:14.512Z,0
2018-08-21T03:23:23.533Z,0
2018-08-21T03:24:33.266Z,0
2018-08-21T03:25:42.585Z,0
2018-08-21T03:26:52.085Z,0
2018-08-21T03:28:01.682Z,0
2018-08-21T03:29:10.574Z,0
2018-08-21T03:30:20.204Z,0
2018-08-21T03:31:29.888Z,0
2018-08-21T03:32:39.748Z,0
2018-08-21T03:33:48.684Z,0
2018-08-21T03:34:58.530Z,0
2018-08-21T03:36:08.092Z,0
2018-08-21T03:37:17.080Z,0
2018-08-21T03:38:26.748Z,0
2018-08-21T03:39:36.392Z,0
2018-08-21T03:40:45.721Z,0
2018-08-21T03:41:55.819Z,0
2018-08-21T03:43:05.189Z,0
2018-08-21T03:44:14.818Z,0
2018-08-21T03:45:24.434Z,0
2018-08-21T03:46:33.702Z,0
2018-08-21T03:47:43.366Z,0
2018-08-21T03:48:53.011Z,0
2018-08-21T03:50:02.307Z,0
2018-08-21T03:51:12.497Z,0
2018-08-21T03:52:21.899Z,0
2018-08-21T03:53:31.564Z,0
2018-08-21T03:54:40.891Z,0
2018-08-21T03:55:50.017Z,0
2018-08-21T03:56:59.392Z,0
2018-08-21T03:58:09.488Z,0
2018-08-21T03:59:18.988Z,0
2018-08-21T04:00:28.697Z,0
2018-08-21T04:01:37.746Z,0
2018-08-21T04:02:47.155Z,0
2018-08-21T04:03:56.779Z,0
2018-08-21T04:05:06.848Z,0
2018-08-21T04:06:16.370Z,0
2018-08-21T04:07:26.089Z,0
2018-08-21T04:08:35.838Z,0
2018-08-21T04:09:45.171Z,0
2018-08-21T04:10:54.797Z,0
2018-08-21T04:12:04.230Z,0
2018-08-21T04:13:14.304Z,0
2018-08-21T04:14:23.871Z,0
2018-08-21T04:15:33.436Z,0
2018-08-21T04:16:43.717Z,0
2018-08-21T04:17:53.407Z,0
2018-08-21T04:19:02.948Z,0
2018-08-21T04:20:13.071Z,0
2018-08-21T04:21:22.515Z,0
2018-08-21T04:22:32.360Z,0
2018-08-21T04:23:41.937Z,0
2018-08-21T04:24:51.418Z,0
2018-08-21T04:26:00.520Z,0
2018-08-21T04:27:10.327Z,0
2018-08-21T04:28:20.147Z,0
2018-08-21T04:29:29.267Z,0
2018-08-21T04:30:38.452Z,0
2018-08-21T04:31:47.809Z,0
2018-08-21T04:32:57.484Z,0
2018-08-21T04:34:06.636Z,0
2018-08-21T04:35:16.487Z,0
2018-08-21T04:36:25.620Z,0
2018-08-21T04:37:35.111Z,0
2018-08-21T04:38:44.238Z,0
2018-08-21T04:39:53.559Z,0
2018-08-21T04:41:02.787Z,0
2018-08-21T04:42:12.726Z,0
2018-08-21T04:43:21.973Z,0
2018-08-21T04:44:31.341Z,0
2018-08-21T04:45:40.223Z,0
2018-08-21T04:46:49.823Z,0
2018-08-21T04:47:59.126Z,0
2018-08-21T04:49:08.668Z,0
2018-08-21T04:50:18.031Z,0
2018-08-21T04:51:27.356Z,0
2018-08-21T04:52:36.879Z,0
2018-08-21T04:53:45.778Z,0
2018-08-21T04:54:55.686Z,0
2018-08-21T04:56:05.038Z,0
2018-08-21T04:57:14.663Z,0
2018-08-21T04:58:24.421Z,0
2018-08-21T04:59:33.540Z,0
2018-08-21T05:00:42.979Z,0
2018-08-21T05:01:52.579Z,0
2018-08-21T05:03:01.504Z,0
2018-08-21T05:04:10.934Z,0
2018-08-21T05:05:20.760Z,0
2018-08-21T05:06:29.779Z,0
2018-08-21T05:07:38.900Z,0
2018-08-21T05:08:48.125Z,0
2018-08-21T05:09:57.387Z,0
2018-08-21T05:11:06.336Z,0
2018-08-21T05:12:16.074Z,0
2018-08-21T05:13:25.846Z,0
2018-08-21T05:14:35.412Z,0
2018-08-21T05:15:45.216Z,0
2018-08-21T05:16:54.727Z,0
2018-08-21T05:18:04.495Z,0
2018-08-21T05:19:14.057Z,0
2018-08-21T05:20:23.765Z,0
2018-08-21T05:21:33.532Z,0
2018-08-21T05:22:43.129Z,0
2018-08-21T05:23:52.624Z,0
2018-08-21T05:25:02.460Z,0
2018-08-21T05:26:11.469Z,0
2018-08-21T05:27:20.516Z,0
2018-08-21T05:28:30.466Z,0
2018-08-21T05:29:39.160Z,0
2018-08-21T05:30:48.470Z,0
2018-08-21T05:31:58.038Z,0
2018-08-21T05:33:07.888Z,0
2018-08-21T05:34:17.476Z,0
2018-08-21T05:35:26.962Z,0
2018-08-21T05:36:36.756Z,0
2018-08-21T05:37:46.008Z,0
2018-08-21T05:38:55.673Z,4
2018-08-21T05:40:04.940Z,4
2018-08-21T05:41:14.765Z,4
2018-08-21T05:42:24.254Z,4
2018-08-21T05:43:33.380Z,4
2018-08-21T05:44:42.397Z,4
2018-08-21T05:45:51.988Z,4
2018-08-21T05:47:01.466Z,4
2018-08-21T05:48:10.815Z,4
2018-08-21T05:49:20.395Z,4
2018-08-21T05:50:29.226Z,4
2018-08-21T05:51:38.986Z,4
2018-08-21T05:52:48.397Z,4
2018-08-21T05:53:58.197Z,0
2018-08-21T05:55:07.525Z,4
2018-08-21T05:56:17.080Z,0
2018-08-21T05:57:26.538Z,0
2018-08-21T05:58:36.122Z,0
2018-08-21T05:59:45.675Z,0
2018-08-21T06:00:54.718Z,0
2018-08-21T06:02:04.356Z,0
2018-08-21T06:03:13.924Z,0
2018-08-21T06:04:23.795Z,0
2018-08-21T06:05:32.817Z,0
2018-08-21T06:06:42.107Z,0
2018-08-21T06:07:52.374Z,0
2018-08-21T06:09:01.685Z,0
2018-08-21T06:10:11.616Z,0
2018-08-21T06:11:20.913Z,0
2018-08-21T06:12:30.176Z,0
2018-08-21T06:13:39.722Z,0
2018-08-21T06:14:49.012Z,0
2018-08-21T06:15:58.337Z,0
2018-08-21T06:17:08.983Z,0
2018-08-21T06:18:18.437Z,0
2018-08-21T06:19:27.494Z,0
2018-08-21T06:20:37.426Z,4
2018-08-21T06:21:47.272Z,4
2018-08-21T06:22:56.800Z,4
2018-08-21T06:24:06.091Z,4
2018-08-21T06:25:15.549Z,4
2018-08-21T06:26:24.800Z,4
2018-08-21T06:27:34.611Z,4
2018-08-21T06:28:44.553Z,4
2018-08-21T06:29:53.780Z,4
2018-08-21T06:31:03.230Z,4
2018-08-21T06:32:12.878Z,0
2018-08-21T06:33:22.079Z,0
2018-08-21T06:34:32.280Z,0
2018-08-21T06:35:42.416Z,0
2018-08-21T06:36:51.970Z,4
2018-08-21T06:38:01.013Z,4
2018-08-21T06:39:10.421Z,4
2018-08-21T06:40:20.003Z,4
2018-08-21T06:41:29.065Z,4
2018-08-21T06:42:38.716Z,4
2018-08-21T06:43:48.095Z,4
2018-08-21T06:44:57.764Z,4
2018-08-21T06:46:07.537Z,4
2018-08-21T06:47:16.814Z,4
2018-08-21T06:48:26.019Z,4
2018-08-21T06:49:36.015Z,4
2018-08-21T06:50:45.484Z,4
2018-08-21T06:51:54.745Z,4
2018-08-21T06:53:03.697Z,4
2018-08-21T06:54:13.077Z,4
2018-08-21T06:55:23.016Z,8
2018-08-21T06:56:32.310Z,8
2018-08-21T06:57:41.631Z,4
2018-08-21T06:58:51.128Z,4
2018-08-21T07:00:00.162Z,4
2018-08-21T07:01:09.910Z,4
2018-08-21T07:02:19.497Z,4
2018-08-21T07:03:28.821Z,8
2018-08-21T07:04:39.272Z,8
2018-08-21T07:05:49.066Z,8
2018-08-21T07:06:58.580Z,8
2018-08-21T07:08:07.887Z,8
2018-08-21T07:09:17.673Z,8
2018-08-21T07:10:27.224Z,4
2018-08-21T07:11:36.761Z,4
2018-08-21T07:12:46.615Z,4
2018-08-21T07:13:55.899Z,4
2018-08-21T07:15:04.940Z,4
2018-08-21T07:16:14.503Z,8
2018-08-21T07:17:23.819Z,8
2018-08-21T07:18:33.354Z,8
2018-08-21T07:19:42.893Z,8
2018-08-21T07:20:51.954Z,4
2018-08-21T07:22:01.234Z,4
2018-08-21T07:23:10.772Z,8
2018-08-21T07:24:20.391Z,8
2018-08-21T07:25:29.642Z,8
2018-08-21T07:26:39.159Z,8
2018-08-21T07:27:48.639Z,8
2018-08-21T07:28:58.525Z,8
2018-08-21T07:30:08.037Z,8
2018-08-21T07:31:18.237Z,8
2018-08-21T07:32:27.551Z,8
2018-08-21T07:33:37.581Z,8
2018-08-21T07:34:46.721Z,8
2018-08-21T07:35:56.104Z,8
2018-08-21T07:37:05.642Z,12
2018-08-21T07:38:14.670Z,12
2018-08-21T07:39:24.296Z,8
2018-08-21T07:40:34.184Z,8
2018-08-21T07:41:44.097Z,8
2018-08-21T07:42:53.907Z,8
2018-08-21T07:44:03.238Z,12
2018-08-21T07:45:12.812Z,12
2018-08-21T07:46:22.431Z,8
2018-08-21T07:47:31.938Z,12
2018-08-21T07:48:41.724Z,12
2018-08-21T07:49:50.790Z,12
2018-08-21T07:51:00.356Z,16
2018-08-21T07:52:09.790Z,12
2018-08-21T07:53:19.054Z,12
2018-08-21T07:54:28.646Z,12
2018-08-21T07:55:38.201Z,16
2018-08-21T07:56:47.449Z,12
2018-08-21T07:57:57.320Z,16
2018-08-21T07:59:07.390Z,16
2018-08-21T08:00:17.432Z,20
2018-08-21T08:01:27.027Z,20
2018-08-21T08:02:36.626Z,20
2018-08-21T08:03:46.127Z,16
2018-08-21T08:04:55.067Z,16
2018-08-21T08:06:04.648Z,16
2018-08-21T08:07:13.867Z,16
2018-08-21T08:08:23.208Z,20
2018-08-21T08:09:32.283Z,20
2018-08-21T08:10:41.106Z,20
2018-08-21T08:11:50.641Z,20
2018-08-21T08:12:59.357Z,16
2018-08-21T08:14:09.420Z,16
2018-08-21T08:15:18.452Z,16
2018-08-21T08:16:28.502Z,12
2018-08-21T08:17:37.804Z,12
2018-08-21T08:18:47.147Z,12
2018-08-21T08:19:57.408Z,12
2018-08-21T08:21:07.027Z,12
2018-08-21T08:22:15.968Z,12
2018-08-21T08:23:25.567Z,12
2018-08-21T08:24:35.223Z,12
2018-08-21T08:25:45.018Z,8
2018-08-21T08:26:54.567Z,12
2018-08-21T08:28:04.905Z,12
2018-08-21T08:29:14.994Z,12
2018-08-21T08:30:25.398Z,12
2018-08-21T08:31:34.996Z,12
2018-08-21T08:32:44.769Z,12
2018-08-21T08:33:54.224Z,12
2018-08-21T08:35:04.093Z,12
2018-08-21T08:36:13.622Z,12
2018-08-21T08:37:23.468Z,12
2018-08-21T08:38:33.564Z,12
2018-08-21T08:39:43.050Z,12
2018-08-21T08:40:52.861Z,12
2018-08-21T08:42:03.882Z,16
2018-08-21T08:43:13.754Z,16
2018-08-21T08:44:23.345Z,20
2018-08-21T08:45:32.867Z,20
2018-08-21T08:46:41.967Z,28
2018-08-21T08:47:51.738Z,24
2018-08-21T08:49:01.997Z,32
2018-08-21T08:50:11.277Z,24
2018-08-21T08:51:20.995Z,32
2018-08-21T08:52:30.513Z,32
2018-08-21T08:53:39.801Z,32
2018-08-21T08:54:49.087Z,32
2018-08-21T08:55:58.446Z,32
2018-08-21T08:57:08.023Z,32
2018-08-21T08:58:17.353Z,36
2018-08-21T08:59:27.391Z,32
2018-08-21T09:00:36.895Z,28
2018-08-21T09:01:46.609Z,32
2018-08-21T09:02:56.350Z,32
2018-08-21T09:04:05.359Z,32
2018-08-21T09:05:16.099Z,36
2018-08-21T09:06:27.328Z,36
2018-08-21T09:07:36.845Z,36
2018-08-21T09:08:46.041Z,36
2018-08-21T09:09:57.486Z,36
2018-08-21T09:11:07.037Z,36
2018-08-21T09:12:16.577Z,36
2018-08-21T09:13:25.883Z,32
2018-08-21T09:14:36.035Z,36
2018-08-21T09:15:45.257Z,36
2018-08-21T09:16:54.684Z,40
2018-08-21T09:18:05.099Z,40
2018-08-21T09:19:14.727Z,36
2018-08-21T09:20:24.044Z,32
2018-08-21T09:21:33.647Z,32
2018-08-21T09:22:43.914Z,36
2018-08-21T09:23:53.419Z,40
2018-08-21T09:25:02.718Z,36
2018-08-21T09:26:12.054Z,40
2018-08-21T09:27:22.003Z,40
2018-08-21T09:28:31.426Z,36
2018-08-21T09:29:41.352Z,40
2018-08-21T09:30:51.272Z,32
2018-08-21T09:32:00.591Z,28
2018-08-21T09:33:09.925Z,32
2018-08-21T09:34:19.481Z,28
2018-08-21T09:35:29.326Z,20
2018-08-21T09:36:38.756Z,20
2018-08-21T09:37:48.327Z,24
2018-08-21T09:38:58.197Z,20
2018-08-21T09:40:07.574Z,20
2018-08-21T09:41:17.226Z,20
2018-08-21T09:42:26.672Z,20
2018-08-21T09:43:36.234Z,24
2018-08-21T09:44:45.909Z,24
2018-08-21T09:45:56.252Z,24
2018-08-21T09:47:06.044Z,28
2018-08-21T09:48:15.763Z,32
2018-08-21T09:49:25.600Z,32
2018-08-21T09:50:34.786Z,32
2018-08-21T09:51:44.024Z,36
2018-08-21T09:52:53.054Z,28
2018-08-21T09:54:02.454Z,24
2018-08-21T09:55:12.367Z,32
2018-08-21T09:56:21.563Z,28
2018-08-21T09:57:30.631Z,32
2018-08-21T09:58:40.772Z,28
2018-08-21T09:59:50.107Z,36
2018-08-21T10:00:59.429Z,36
2018-08-21T10:02:09.125Z,36
2018-08-21T10:03:18.309Z,36
2018-08-21T10:04:27.437Z,40
2018-08-21T10:05:37.509Z,40
2018-08-21T10:06:47.019Z,40
2018-08-21T10:07:56.546Z,40
2018-08-21T10:09:05.813Z,36
2018-08-21T10:10:15.193Z,40
2018-08-21T10:11:25.085Z,44
2018-08-21T10:12:34.661Z,44
2018-08-21T10:13:43.747Z,44
2018-08-21T10:14:53.199Z,40
2018-08-21T10:16:02.024Z,44
2018-08-21T10:17:11.400Z,44
2018-08-21T10:18:20.983Z,40
2018-08-21T10:19:30.232Z,40
2018-08-21T10:20:39.765Z,40
2018-08-21T10:21:48.790Z,40
2018-08-21T10:22:58.489Z,40
2018-08-21T10:24:07.848Z,40
2018-08-21T10:25:16.966Z,40
2018-08-21T10:26:26.631Z,40
2018-08-21T10:27:36.326Z,40
2018-08-21T10:28:45.735Z,40
2018-08-21T10:29:55.413Z,40
2018-08-21T10:31:04.757Z,40
2018-08-21T10:32:14.308Z,40
2018-08-21T10:33:23.667Z,40
2018-08-21T10:34:33.079Z,40
2018-08-21T10:35:42.916Z,36
2018-08-21T10:36:52.521Z,36
2018-08-21T10:38:02.571Z,36
2018-08-21T10:39:12.177Z,32
2018-08-21T10:40:21.241Z,32
2018-08-21T10:41:30.877Z,36
2018-08-21T10:42:40.203Z,32
2018-08-21T10:43:49.534Z,32
2018-08-21T10:44:58.670Z,32
2018-08-21T10:46:08.291Z,36
2018-08-21T10:47:18.171Z,28
2018-08-21T10:48:27.182Z,28
2018-08-21T10:49:36.172Z,28
2018-08-21T10:50:45.580Z,20
2018-08-21T10:51:55.626Z,24
2018-08-21T10:53:04.931Z,24
2018-08-21T10:54:14.355Z,24
2018-08-21T10:55:23.407Z,20
2018-08-21T10:56:33.079Z,20
2018-08-21T10:57:42.455Z,24
2018-08-21T10:58:51.897Z,20
2018-08-21T11:00:01.030Z,20
2018-08-21T11:01:10.036Z,20
2018-08-21T11:02:19.495Z,20
2018-08-21T11:03:28.828Z,20
2018-08-21T11:04:38.828Z,20
2018-08-21T11:05:48.709Z,20
2018-08-21T11:06:58.239Z,20
2018-08-21T11:08:07.443Z,20
2018-08-21T11:09:16.941Z,20
2018-08-21T11:10:26.315Z,20
2018-08-21T11:11:35.699Z,20
2018-08-21T11:12:44.976Z,20
2018-08-21T11:13:54.940Z,20
2018-08-21T11:15:04.506Z,20
2018-08-21T11:16:13.800Z,20
2018-08-21T11:17:23.547Z,20
2018-08-21T11:18:32.929Z,20
2018-08-21T11:19:42.885Z,16
2018-08-21T11:20:53.125Z,20
2018-08-21T11:22:02.770Z,20
2018-08-21T11:23:12.335Z,16
2018-08-21T11:24:21.901Z,16
2018-08-21T11:25:31.280Z,20
2018-08-21T11:26:40.793Z,20
2018-08-21T11:27:50.496Z,16
2018-08-21T11:29:00.191Z,16
2018-08-21T11:30:09.385Z,16
2018-08-21T11:31:18.834Z,16
2018-08-21T11:32:28.561Z,20
2018-08-21T11:33:38.037Z,20
2018-08-21T11:34:47.664Z,20
2018-08-21T11:35:57.120Z,16
2018-08-21T11:37:06.319Z,16
2018-08-21T11:38:15.482Z,16
2018-08-21T11:39:24.705Z,16
2018-08-21T11:40:34.149Z,16
2018-08-21T11:41:43.592Z,16
2018-08-21T11:42:53.046Z,16
2018-08-21T11:44:02.916Z,16
2018-08-21T11:45:11.842Z,16
2018-08-21T11:46:21.063Z,20
2018-08-21T11:47:30.275Z,16
2018-08-21T11:48:39.670Z,20
2018-08-21T11:49:49.348Z,16
2018-08-21T11:50:58.321Z,16
2018-08-21T11:52:08.131Z,16
2018-08-21T11:53:17.917Z,20
2018-08-21T11:54:26.981Z,20
2018-08-21T11:55:36.228Z,20
2018-08-21T11:56:45.441Z,20
2018-08-21T11:57:54.880Z,20
2018-08-21T11:59:04.312Z,20
2018-08-21T12:00:13.499Z,20
2018-08-21T12:01:22.814Z,20
2018-08-21T12:02:32.450Z,20
2018-08-21T12:03:42.238Z,20
2018-08-21T12:04:51.611Z,20
2018-08-21T12:06:00.691Z,20
2018-08-21T12:07:10.081Z,24
2018-08-21T12:08:19.647Z,20
2018-08-21T12:09:28.987Z,20
2018-08-21T12:10:38.332Z,24
2018-08-21T12:11:47.704Z,20
2018-08-21T12:12:57.427Z,24
2018-08-21T12:14:06.685Z,24
2018-08-21T12:15:16.359Z,28
2018-08-21T12:16:25.443Z,28
2018-08-21T12:17:34.498Z,32
2018-08-21T12:18:44.662Z,36
2018-08-21T12:19:54.235Z,32
2018-08-21T12:21:03.351Z,32
2018-08-21T12:22:12.424Z,36
2018-08-21T12:23:22.447Z,40
2018-08-21T12:24:31.897Z,36
2018-08-21T12:25:40.976Z,40
2018-08-21T12:26:50.447Z,40
2018-08-21T12:28:00.147Z,36
2018-08-21T12:29:09.561Z,40
2018-08-21T12:30:18.928Z,40
2018-08-21T12:31:28.617Z,40
2018-08-21T12:32:38.196Z,40
2018-08-21T12:33:47.925Z,40
2018-08-21T12:34:57.558Z,40
2018-08-21T12:36:07.504Z,36
2018-08-21T12:37:17.176Z,36
2018-08-21T12:38:26.884Z,20
2018-08-21T12:39:36.137Z,36
2018-08-21T12:40:45.582Z,36
2018-08-21T12:41:55.193Z,36
2018-08-21T12:43:05.123Z,40
2018-08-21T12:44:14.435Z,40
2018-08-21T12:45:24.048Z,44
2018-08-21T12:46:33.832Z,40
2018-08-21T12:47:44.041Z,40
2018-08-21T12:48:53.510Z,40
2018-08-21T12:50:02.963Z,40
2018-08-21T12:51:11.789Z,36
2018-08-21T12:52:21.432Z,24
2018-08-21T12:53:31.442Z,24
2018-08-21T12:54:41.143Z,40
2018-08-21T12:55:50.474Z,40
2018-08-21T12:57:00.648Z,40
2018-08-21T12:58:09.738Z,32
2018-08-21T12:59:19.110Z,44
2018-08-21T13:00:29.178Z,44
2018-08-21T13:01:38.575Z,48
2018-08-21T13:02:47.691Z,48
2018-08-21T13:03:57.357Z,44
2018-08-21T13:05:06.348Z,48
2018-08-21T13:06:16.148Z,48
2018-08-21T13:07:25.001Z,48
2018-08-21T13:08:34.857Z,48
2018-08-21T13:09:44.133Z,40
2018-08-21T13:10:53.489Z,44
2018-08-21T13:12:03.150Z,52
2018-08-21T13:13:12.269Z,48
2018-08-21T13:14:21.870Z,48
2018-08-21T13:15:31.487Z,40
2018-08-21T13:16:40.985Z,48
2018-08-21T13:17:50.736Z,36
2018-08-21T13:18:59.993Z,32
2018-08-21T13:20:09.183Z,28
2018-08-21T13:21:18.719Z,28
2018-08-21T13:22:27.993Z,20
2018-08-21T13:23:37.854Z,16
2018-08-21T13:24:46.999Z,12
2018-08-21T13:25:56.434Z,16
2018-08-21T13:27:05.548Z,16
2018-08-21T13:28:14.753Z,16
2018-08-21T13:29:24.027Z,24
2018-08-21T13:30:33.919Z,24
2018-08-21T13:31:42.788Z,20
2018-08-21T13:32:52.480Z,16
2018-08-21T13:34:01.741Z,20
2018-08-21T13:35:11.064Z,28
2018-08-21T13:36:21.368Z,36
2018-08-21T13:37:30.471Z,52
2018-08-21T13:38:39.595Z,52
2018-08-21T13:39:49.184Z,20
2018-08-21T13:40:58.955Z,20
2018-08-21T13:42:08.271Z,20
2018-08-21T13:43:17.892Z,16
2018-08-21T13:44:27.304Z,16
2018-08-21T13:45:37.144Z,16
2018-08-21T13:46:46.959Z,16
2018-08-21T13:47:56.344Z,16
2018-08-21T13:49:05.892Z,36
2018-08-21T13:50:15.185Z,44
2018-08-21T13:51:24.739Z,44
2018-08-21T13:52:34.317Z,36
2018-08-21T13:53:44.263Z,36
2018-08-21T13:54:53.600Z,32
2018-08-21T13:56:02.708Z,40
2018-08-21T13:57:12.261Z,32
2018-08-21T13:58:21.831Z,36
2018-08-21T13:59:30.997Z,28
2018-08-21T14:00:40.608Z,44
2018-08-21T14:01:49.792Z,48
2018-08-21T14:02:59.427Z,52
2018-08-21T14:04:08.867Z,32
2018-08-21T14:05:18.131Z,32
2018-08-21T14:06:27.147Z,20
2018-08-21T14:07:37.048Z,36
2018-08-21T14:08:46.685Z,20
2018-08-21T14:09:56.332Z,20
2018-08-21T14:11:05.973Z,16
2018-08-21T14:12:15.666Z,20
2018-08-21T14:13:25.281Z,20
2018-08-21T14:14:34.982Z,16
2018-08-21T14:15:44.677Z,16
2018-08-21T14:16:54.286Z,16
2018-08-21T14:18:04.337Z,20
2018-08-21T14:19:13.928Z,20
2018-08-21T14:20:23.698Z,20
2018-08-21T14:21:32.674Z,20
2018-08-21T14:22:42.625Z,20
2018-08-21T14:23:51.880Z,40
2018-08-21T14:25:01.452Z,36
2018-08-21T14:26:11.262Z,32
2018-08-21T14:27:20.797Z,56
2018-08-21T14:28:29.901Z,52
2018-08-21T14:29:39.493Z,56
2018-08-21T14:30:49.325Z,56
2018-08-21T14:31:58.602Z,48
2018-08-21T14:33:08.591Z,40
2018-08-21T14:34:18.684Z,40
2018-08-21T14:35:28.246Z,48
2018-08-21T14:36:37.542Z,28
2018-08-21T14:37:47.115Z,16
2018-08-21T14:38:56.635Z,20
2018-08-21T14:40:06.249Z,24
2018-08-21T14:41:15.079Z,24
2018-08-21T14:42:24.721Z,20
2018-08-21T14:43:34.588Z,20
2018-08-21T14:44:43.665Z,16
2018-08-21T14:45:52.725Z,16
2018-08-21T14:47:02.464Z,24
2018-08-21T14:48:11.862Z,24
2018-08-21T14:49:21.673Z,24
2018-08-21T14:50:31.664Z,32
2018-08-21T14:51:41.244Z,32
2018-08-21T14:52:51.141Z,24
2018-08-21T14:54:01.172Z,24
2018-08-21T14:55:11.131Z,20
2018-08-21T14:56:20.692Z,24
2018-08-21T14:57:30.494Z,20
2018-08-21T14:58:40.230Z,16
2018-08-21T14:59:49.380Z,16
2018-08-21T15:00:58.939Z,12
2018-08-21T15:02:08.319Z,16
2018-08-21T15:03:17.495Z,12
2018-08-21T15:04:26.817Z,12
2018-08-21T15:05:36.350Z,12
2018-08-21T15:06:45.668Z,12
2018-08-21T15:07:55.458Z,8
2018-08-21T15:09:04.968Z,8
2018-08-21T15:10:14.960Z,8
2018-08-21T15:11:24.565Z,8
2018-08-21T15:12:34.243Z,12
2018-08-21T15:13:43.690Z,12
2018-08-21T15:14:52.821Z,12
2018-08-21T15:16:02.461Z,8
2018-08-21T15:17:12.066Z,12
2018-08-21T15:18:21.692Z,12
2018-08-21T15:19:31.013Z,12
2018-08-21T15:20:40.575Z,12
2018-08-21T15:21:50.441Z,12
2018-08-21T15:22:59.898Z,12
2018-08-21T15:24:08.904Z,12
2018-08-21T15:25:18.432Z,12
2018-08-21T15:26:27.857Z,12
2018-08-21T15:27:37.566Z,12
2018-08-21T15:28:46.976Z,12
2018-08-21T15:29:55.756Z,12
2018-08-21T15:31:04.575Z,8
2018-08-21T15:32:14.142Z,12
2018-08-21T15:33:23.913Z,12
2018-08-21T15:34:34.187Z,12
2018-08-21T15:35:44.036Z,12
2018-08-21T15:36:53.863Z,12
2018-08-21T15:38:03.429Z,12
2018-08-21T15:39:13.055Z,12
2018-08-21T15:40:23.262Z,12
2018-08-21T15:41:33.233Z,12
2018-08-21T15:42:42.949Z,12
2018-08-21T15:43:52.647Z,12
2018-08-21T15:45:01.950Z,16
2018-08-21T15:46:11.538Z,16
2018-08-21T15:47:21.169Z,12
2018-08-21T15:48:30.801Z,12
2018-08-21T15:49:40.673Z,12
2018-08-21T15:50:49.556Z,12
2018-08-21T15:51:58.870Z,12
2018-08-21T15:53:08.598Z,12
2018-08-21T15:54:18.095Z,12
2018-08-21T15:55:28.031Z,12
2018-08-21T15:56:37.677Z,12
2018-08-21T15:57:47.858Z,12
2018-08-21T15:58:56.912Z,12
2018-08-21T16:00:06.536Z,12
2018-08-21T16:01:16.087Z,8
2018-08-21T16:02:25.358Z,12
2018-08-21T16:03:34.424Z,12
2018-08-21T16:04:43.727Z,12
2018-08-21T16:05:53.273Z,12
2018-08-21T16:07:02.803Z,12
2018-08-21T16:08:12.201Z,12
2018-08-21T16:09:21.590Z,12
2018-08-21T16:10:31.351Z,12
2018-08-21T16:11:41.303Z,12
2018-08-21T16:12:51.314Z,12
2018-08-21T16:14:00.783Z,8
2018-08-21T16:15:10.225Z,4
2018-08-21T16:16:19.864Z,4
2018-08-21T16:17:29.411Z,4
2018-08-21T16:18:38.469Z,4
2018-08-21T16:19:47.979Z,4
2018-08-21T16:20:57.305Z,4
2018-08-21T16:22:06.669Z,4
2018-08-21T16:23:16.676Z,4
2018-08-21T16:24:26.011Z,4
2018-08-21T16:25:35.583Z,4
2018-08-21T16:26:44.979Z,4
2018-08-21T16:27:54.251Z,4
2018-08-21T16:29:03.551Z,4
2018-08-21T16:30:13.604Z,4
2018-08-21T16:31:22.850Z,4
2018-08-21T16:32:32.731Z,4
2018-08-21T16:33:42.084Z,4
2018-08-21T16:34:51.383Z,4
2018-08-21T16:36:01.266Z,0
2018-08-21T16:37:10.652Z,4
2018-08-21T16:38:20.592Z,0
2018-08-21T16:39:30.644Z,0
2018-08-21T16:40:41.393Z,0
2018-08-21T16:41:51.392Z,0
2018-08-21T16:43:00.524Z,0
2018-08-21T16:44:09.885Z,0
2018-08-21T16:45:18.678Z,0
2018-08-21T16:46:28.735Z,0
2018-08-21T16:47:38.152Z,4
2018-08-21T16:48:48.237Z,4
2018-08-21T16:49:57.629Z,0